createdAt,value
2018-10-03T00:01:00.583Z,101296.91
2018-10-03T00:03:29.997Z,101298.63
2018-10-03T00:05:58.674Z,101307.38
2018-10-03T00:08:27.331Z,101313.06
2018-10-03T00:10:56.567Z,101311.28
2018-10-03T00:13:25.189Z,101307.76
2018-10-03T00:15:53.830Z,101307.76
2018-10-03T00:18:22.514Z,101310.38
2018-10-03T00:20:51.324Z,101321.78
2018-10-03T00:23:19.822Z,101328.41
2018-10-03T00:25:48.290Z,101313.95
2018-10-03T00:28:17.070Z,101317.00
2018-10-03T00:30:45.681Z,101317.41
2018-10-03T00:33:14.584Z,101323.58
2018-10-03T00:35:44.056Z,101324.06
2018-10-03T00:38:12.699Z,101337.23
2018-10-03T00:40:41.430Z,101338.09
2018-10-03T00:43:09.997Z,101338.55
2018-10-03T00:45:38.480Z,101347.27
2018-10-03T00:48:08.078Z,101361.66
2018-10-03T00:50:36.622Z,101347.63
2018-10-03T00:53:05.315Z,101354.61
2018-10-03T00:55:33.748Z,101344.53
2018-10-03T00:58:02.497Z,101355.87
2018-10-03T01:00:30.971Z,101358.97
2018-10-03T01:02:59.685Z,101365.95
2018-10-03T01:05:28.222Z,101357.19
2018-10-03T01:07:56.677Z,101363.33
2018-10-03T01:10:25.314Z,101358.91
2018-10-03T01:12:53.804Z,101354.92
2018-10-03T01:15:22.527Z,101364.53
2018-10-03T01:17:51.196Z,101362.80
2018-10-03T01:20:20.016Z,101364.63
2018-10-03T01:22:48.637Z,101376.88
2018-10-03T01:25:17.352Z,101367.67
2018-10-03T01:27:46.123Z,101372.03
2018-10-03T01:30:14.642Z,101377.72
2018-10-03T01:32:43.838Z,101376.88
2018-10-03T01:35:12.813Z,101385.66
2018-10-03T01:37:41.277Z,101388.80
2018-10-03T01:40:09.999Z,101378.36
2018-10-03T01:42:39.293Z,101376.22
2018-10-03T01:45:07.778Z,101379.31
2018-10-03T01:47:36.362Z,101385.05
2018-10-03T01:50:05.540Z,101377.66
2018-10-03T01:52:34.720Z,101376.39
2018-10-03T01:55:03.419Z,101368.52
2018-10-03T01:57:35.145Z,101372.92
2018-10-03T02:00:03.904Z,101380.39
2018-10-03T02:02:32.952Z,101385.69
2018-10-03T02:05:01.467Z,101390.05
2018-10-03T02:07:30.000Z,101381.28
2018-10-03T02:09:58.542Z,101385.64
2018-10-03T02:12:27.107Z,101389.09
2018-10-03T02:14:56.561Z,101396.92
2018-10-03T02:17:25.528Z,101398.65
2018-10-03T02:19:54.124Z,101399.96
2018-10-03T02:22:22.619Z,101398.61
2018-10-03T02:24:51.696Z,101401.27
2018-10-03T02:27:20.300Z,101409.58
2018-10-03T02:29:54.076Z,101399.07
2018-10-03T02:32:22.655Z,101394.67
2018-10-03T02:34:51.101Z,101403.42
2018-10-03T02:37:20.428Z,101406.89
2018-10-03T02:39:48.914Z,101415.23
2018-10-03T02:42:17.813Z,101420.08
2018-10-03T02:44:46.344Z,101420.50
2018-10-03T02:47:15.593Z,101427.54
2018-10-03T02:49:44.332Z,101436.72
2018-10-03T02:52:12.940Z,101438.88
2018-10-03T02:54:41.643Z,101448.50
2018-10-03T02:57:10.146Z,101442.36
2018-10-03T02:59:38.760Z,101434.05
2018-10-03T03:02:07.861Z,101437.56
2018-10-03T03:04:36.536Z,101437.61
2018-10-03T03:07:05.436Z,101441.61
2018-10-03T03:09:34.038Z,101439.45
2018-10-03T03:12:02.558Z,101448.69
2018-10-03T03:14:34.165Z,101452.26
2018-10-03T03:17:02.817Z,101455.78
2018-10-03T03:19:31.270Z,101444.44
2018-10-03T03:22:00.318Z,101445.38
2018-10-03T03:24:28.940Z,101456.80
2018-10-03T03:26:58.357Z,101455.89
2018-10-03T03:29:27.556Z,101450.26
2018-10-03T03:31:56.177Z,101448.57
2018-10-03T03:34:24.845Z,101455.56
2018-10-03T03:36:53.317Z,101448.19
2018-10-03T03:39:21.907Z,101455.18
2018-10-03T03:41:50.465Z,101463.52
2018-10-03T03:44:19.107Z,101469.23
2018-10-03T03:46:47.644Z,101478.88
2018-10-03T03:49:17.293Z,101480.66
2018-10-03T03:51:45.940Z,101474.98
2018-10-03T03:54:14.379Z,101478.92
2018-10-03T03:56:43.718Z,101478.08
2018-10-03T03:59:12.254Z,101487.29
2018-10-03T04:01:41.147Z,101486.02
2018-10-03T04:04:09.890Z,101493.47
2018-10-03T04:06:38.459Z,101493.50
2018-10-03T04:09:07.486Z,101489.17
2018-10-03T04:11:36.007Z,101491.80
2018-10-03T04:14:04.510Z,101488.36
2018-10-03T04:16:33.189Z,101508.03
2018-10-03T04:19:01.803Z,101503.24
2018-10-03T04:21:34.637Z,101509.41
2018-10-03T04:24:03.085Z,101509.86
2018-10-03T04:26:31.908Z,101510.75
2018-10-03T04:29:00.583Z,101516.45
2018-10-03T04:31:29.069Z,101512.09
2018-10-03T04:33:58.269Z,101508.62
2018-10-03T04:36:27.112Z,101513.44
2018-10-03T04:38:56.227Z,101522.18
2018-10-03T04:41:27.292Z,101522.20
2018-10-03T04:43:56.468Z,101526.62
2018-10-03T04:46:25.173Z,101542.77
2018-10-03T04:49:00.568Z,101548.92
2018-10-03T04:51:29.990Z,101548.50
2018-10-03T04:53:58.502Z,101543.28
2018-10-03T04:56:27.155Z,101547.67
2018-10-03T04:58:56.227Z,101549.00
2018-10-03T05:01:24.818Z,101554.70
2018-10-03T05:03:53.458Z,101566.91
2018-10-03T05:06:21.967Z,101566.05
2018-10-03T05:08:50.769Z,101568.23
2018-10-03T05:11:19.235Z,101570.43
2018-10-03T05:13:48.173Z,101567.84
2018-10-03T05:16:16.773Z,101572.22
2018-10-03T05:18:46.130Z,101567.83
2018-10-03T05:21:14.824Z,101574.41
2018-10-03T05:23:43.467Z,101576.16
2018-10-03T05:26:12.192Z,101588.38
2018-10-03T05:28:40.943Z,101586.64
2018-10-03T05:31:10.236Z,101587.52
2018-10-03T05:33:38.876Z,101594.06
2018-10-03T05:36:07.846Z,101592.32
2018-10-03T05:38:36.816Z,101593.20
2018-10-03T05:41:05.266Z,101598.89
2018-10-03T05:43:33.996Z,101606.75
2018-10-03T05:46:02.502Z,101605.43
2018-10-03T05:48:31.118Z,101610.27
2018-10-03T05:50:59.685Z,101602.41
2018-10-03T05:53:28.313Z,101605.00
2018-10-03T05:55:57.250Z,101601.50
2018-10-03T05:58:25.722Z,101604.58
2018-10-03T06:00:55.016Z,101617.66
2018-10-03T06:03:23.677Z,101620.74
2018-10-03T06:05:52.120Z,101618.55
2018-10-03T06:08:20.758Z,101626.86
2018-10-03T06:10:52.560Z,101639.08
2018-10-03T06:13:21.184Z,101629.03
2018-10-03T06:15:49.800Z,101641.27
2018-10-03T06:18:19.286Z,101649.12
2018-10-03T06:20:47.963Z,101649.97
2018-10-03T06:23:16.443Z,101654.79
2018-10-03T06:25:45.385Z,101656.95
2018-10-03T06:28:14.127Z,101663.05
2018-10-03T06:30:42.781Z,101662.62
2018-10-03T06:33:11.425Z,101674.85
2018-10-03T06:35:40.088Z,101674.41
2018-10-03T06:38:08.666Z,101679.20
2018-10-03T06:40:37.177Z,101680.50
2018-10-03T06:43:06.627Z,101685.29
2018-10-03T06:45:35.309Z,101703.21
2018-10-03T06:48:03.895Z,101701.00
2018-10-03T06:50:32.413Z,101694.91
2018-10-03T06:53:01.547Z,101699.69
2018-10-03T06:55:30.206Z,101707.98
2018-10-03T06:57:58.708Z,101714.98
2018-10-03T07:00:27.625Z,101718.45
2018-10-03T07:02:56.232Z,101722.39
2018-10-03T07:05:24.899Z,101715.41
2018-10-03T07:07:54.340Z,101727.20
2018-10-03T07:10:23.579Z,101728.05
2018-10-03T07:12:52.545Z,101736.28
2018-10-03T07:15:21.593Z,101746.75
2018-10-03T07:17:50.613Z,101741.92
2018-10-03T07:20:19.484Z,101757.62
2018-10-03T07:22:48.710Z,101757.61
2018-10-03T07:25:17.419Z,101757.16
2018-10-03T07:27:45.962Z,101766.77
2018-10-03T07:30:14.606Z,101768.50
2018-10-03T07:32:43.530Z,101775.02
2018-10-03T07:35:12.141Z,101775.86
2018-10-03T07:37:40.909Z,101770.59
2018-10-03T07:40:09.625Z,101773.69
2018-10-03T07:42:39.360Z,101783.31
2018-10-03T07:45:08.011Z,101789.02
2018-10-03T07:47:36.490Z,101799.51
2018-10-03T07:50:05.366Z,101800.36
2018-10-03T07:52:34.315Z,101802.10
2018-10-03T07:55:03.023Z,101803.40
2018-10-03T07:57:31.766Z,101807.75
2018-10-03T08:00:00.878Z,101813.41
2018-10-03T08:02:29.882Z,101819.50
2018-10-03T08:04:58.693Z,101819.91
2018-10-03T08:07:27.560Z,101821.17
2018-10-03T08:09:56.169Z,101826.42
2018-10-03T08:12:24.629Z,101831.17
2018-10-03T08:14:53.211Z,101824.98
2018-10-03T08:17:21.850Z,101834.52
2018-10-03T08:19:50.689Z,101825.67
2018-10-03T08:22:19.391Z,101829.16
2018-10-03T08:24:48.240Z,101839.20
2018-10-03T08:27:17.429Z,101843.08
2018-10-03T08:29:46.051Z,101844.77
2018-10-03T08:32:15.207Z,101851.72
2018-10-03T08:34:44.359Z,101856.98
2018-10-03T08:37:12.877Z,101853.43
2018-10-03T08:39:41.353Z,101859.97
2018-10-03T08:42:10.587Z,101858.58
2018-10-03T08:44:39.417Z,101864.66
2018-10-03T08:47:08.169Z,101868.09
2018-10-03T08:49:36.812Z,101869.34
2018-10-03T08:52:05.395Z,101872.82
2018-10-03T08:54:34.116Z,101882.88
2018-10-03T08:57:02.774Z,101874.09
2018-10-03T08:59:31.747Z,101876.67
2018-10-03T09:02:00.530Z,101884.53
2018-10-03T09:04:29.288Z,101886.23
2018-10-03T09:06:57.777Z,101887.96
2018-10-03T09:09:26.282Z,101895.77
2018-10-03T09:11:54.857Z,101900.14
2018-10-03T09:14:23.497Z,101901.80
2018-10-03T09:16:52.053Z,101907.86
2018-10-03T09:19:20.640Z,101910.41
2018-10-03T09:21:49.371Z,101901.10
2018-10-03T09:24:18.548Z,101902.31
2018-10-03T09:26:47.142Z,101901.78
2018-10-03T09:29:16.406Z,101904.27
2018-10-03T09:31:45.320Z,101909.38
2018-10-03T09:34:13.989Z,101921.48
2018-10-03T09:36:42.578Z,101918.30
2018-10-03T09:39:12.243Z,101910.94
2018-10-03T09:41:41.282Z,101910.04
2018-10-03T09:44:10.670Z,101905.13
2018-10-03T09:46:39.460Z,101911.72
2018-10-03T09:49:08.057Z,101909.91
2018-10-03T09:51:36.643Z,101912.00
2018-10-03T09:54:05.431Z,101909.73
2018-10-03T09:56:33.968Z,101916.20
2018-10-03T09:59:02.595Z,101919.02
2018-10-03T10:01:32.528Z,101924.22
2018-10-03T10:04:02.456Z,101928.95
2018-10-03T10:06:32.224Z,101925.77
2018-10-03T10:09:01.053Z,101936.52
2018-10-03T10:11:29.695Z,101934.03
2018-10-03T10:13:58.391Z,101942.17
2018-10-03T10:16:27.406Z,101934.67
2018-10-03T10:18:55.903Z,101933.55
2018-10-03T10:21:24.758Z,101939.65
2018-10-03T10:23:53.725Z,101948.65
2018-10-03T10:26:22.206Z,101953.13
2018-10-03T10:28:50.875Z,101953.94
2018-10-03T10:31:19.526Z,101959.23
2018-10-03T10:33:48.327Z,101955.08
2018-10-03T10:36:16.879Z,101952.41
2018-10-03T10:38:46.348Z,101951.66
2018-10-03T10:41:15.230Z,101948.55
2018-10-03T10:43:43.786Z,101941.11
2018-10-03T10:46:12.512Z,101940.76
2018-10-03T10:48:47.790Z,101934.45
2018-10-03T10:51:16.469Z,101940.55
2018-10-03T10:53:45.452Z,101941.95
2018-10-03T10:56:14.020Z,101948.67
2018-10-03T10:58:42.733Z,101952.69
2018-10-03T11:01:11.445Z,101956.33
2018-10-03T11:03:40.159Z,101959.67
2018-10-03T11:06:09.501Z,101964.15
2018-10-03T11:08:40.065Z,101966.63
2018-10-03T11:11:15.664Z,101971.13
2018-10-03T11:13:44.290Z,101964.77
2018-10-03T11:16:12.755Z,101969.34
2018-10-03T11:18:41.389Z,101970.23
2018-10-03T11:21:10.011Z,101969.56
2018-10-03T11:23:38.871Z,101968.73
2018-10-03T11:26:07.802Z,101971.70
2018-10-03T11:28:36.437Z,101976.69
2018-10-03T11:31:05.009Z,101975.85
2018-10-03T11:33:33.617Z,101971.85
2018-10-03T11:36:03.657Z,101975.92
2018-10-03T11:38:32.226Z,101975.88
2018-10-03T11:41:00.864Z,101973.51
2018-10-03T11:43:29.690Z,101976.08
2018-10-03T11:45:58.542Z,101961.61
2018-10-03T11:48:27.222Z,101967.91
2018-10-03T11:50:56.618Z,101966.92
2018-10-03T11:53:25.589Z,101958.77
2018-10-03T11:55:54.352Z,101961.58
2018-10-03T11:58:23.133Z,101970.41
2018-10-03T12:00:51.805Z,101967.22
2018-10-03T12:03:20.368Z,101968.91
2018-10-03T12:05:49.715Z,101970.16
2018-10-03T12:08:18.220Z,101960.30
2018-10-03T12:10:46.763Z,101948.06
2018-10-03T12:13:15.550Z,101948.60
2018-10-03T12:15:44.169Z,101949.27
2018-10-03T12:18:13.389Z,101948.44
2018-10-03T12:20:42.065Z,101951.44
2018-10-03T12:23:10.931Z,101953.84
2018-10-03T12:25:40.272Z,101960.47
2018-10-03T12:28:09.109Z,101963.64
2018-10-03T12:30:37.611Z,101967.25
2018-10-03T12:33:06.213Z,101967.31
2018-10-03T12:35:35.668Z,101970.50
2018-10-03T12:38:04.479Z,101966.73
2018-10-03T12:40:33.650Z,101961.52
2018-10-03T12:43:02.405Z,101965.88
2018-10-03T12:45:31.141Z,101969.02
2018-10-03T12:48:00.496Z,101963.80
2018-10-03T12:50:29.115Z,101972.87
2018-10-03T12:52:57.654Z,101965.41
2018-10-03T12:55:26.252Z,101970.81
2018-10-03T12:57:54.890Z,101965.77
2018-10-03T13:00:27.844Z,101961.63
2018-10-03T13:02:56.650Z,101959.27
2018-10-03T13:05:25.180Z,101971.69
2018-10-03T13:07:54.042Z,101955.98
2018-10-03T13:10:22.679Z,101958.95
2018-10-03T13:12:51.209Z,101958.33
2018-10-03T13:15:19.813Z,101953.94
2018-10-03T13:17:49.502Z,101959.44
2018-10-03T13:20:18.021Z,101955.48
2018-10-03T13:22:46.623Z,101950.61
2018-10-03T13:25:15.907Z,101948.44
2018-10-03T13:27:44.408Z,101951.47
2018-10-03T13:30:13.590Z,101956.33
2018-10-03T13:32:42.393Z,101955.43
2018-10-03T13:35:11.384Z,101964.56
2018-10-03T13:37:40.277Z,101966.80
2018-10-03T13:40:08.984Z,101962.03
2018-10-03T13:42:37.595Z,101960.41
2018-10-03T13:45:06.962Z,101966.28
2018-10-03T13:47:35.586Z,101968.22
2018-10-03T13:50:04.550Z,101962.54
2018-10-03T13:52:33.205Z,101967.62
2018-10-03T13:55:01.835Z,101965.77
2018-10-03T13:57:30.260Z,101967.22
2018-10-03T13:59:59.258Z,101953.97
2018-10-03T14:02:28.577Z,101952.40
2018-10-03T14:04:57.874Z,101953.60
2018-10-03T14:07:27.312Z,101953.78
2018-10-03T14:09:55.917Z,101955.00
2018-10-03T14:12:24.809Z,101947.68
2018-10-03T14:14:53.508Z,101949.09
2018-10-03T14:17:22.284Z,101951.88
2018-10-03T14:19:50.847Z,101951.69
2018-10-03T14:22:19.521Z,101945.49
2018-10-03T14:24:48.376Z,101945.23
2018-10-03T14:27:23.398Z,101939.72
2018-10-03T14:29:52.189Z,101940.55
2018-10-03T14:32:20.996Z,101939.11
2018-10-03T14:34:49.721Z,101941.19
2018-10-03T14:37:18.529Z,101939.81
2018-10-03T14:39:47.701Z,101941.34
2018-10-03T14:42:17.533Z,101933.28
2018-10-03T14:44:46.479Z,101939.33
2018-10-03T14:47:15.274Z,101939.61
2018-10-03T14:49:45.047Z,101932.85
2018-10-03T14:52:13.781Z,101935.74
2018-10-03T14:54:42.349Z,101929.58
2018-10-03T14:57:11.192Z,101924.27
2018-10-03T14:59:39.932Z,101932.71
2018-10-03T15:02:08.770Z,101923.62
2018-10-03T15:04:37.477Z,101928.83
2018-10-03T15:07:07.102Z,101929.08
2018-10-03T15:09:36.174Z,101934.84
2018-10-03T15:12:04.946Z,101937.06
2018-10-03T15:14:33.544Z,101938.73
2018-10-03T15:17:02.056Z,101935.05
2018-10-03T15:19:30.582Z,101934.48
2018-10-03T15:21:59.975Z,101938.05
2018-10-03T15:24:28.679Z,101935.43
2018-10-03T15:26:57.434Z,101935.92
2018-10-03T15:29:26.077Z,101937.27
2018-10-03T15:31:55.257Z,101943.64
2018-10-03T15:34:24.269Z,101946.94
2018-10-03T15:36:52.992Z,101942.60
2018-10-03T15:39:21.838Z,101942.60
2018-10-03T15:41:50.509Z,101948.40
2018-10-03T15:44:19.191Z,101950.64
2018-10-03T15:46:47.934Z,101944.02
2018-10-03T15:49:16.437Z,101951.97
2018-10-03T15:51:44.952Z,101949.02
2018-10-03T15:54:13.642Z,101952.62
2018-10-03T15:56:42.498Z,101958.48
2018-10-03T15:59:11.606Z,101957.19
2018-10-03T16:01:40.580Z,101958.00
2018-10-03T16:04:09.866Z,101961.45
2018-10-03T16:06:38.395Z,101964.95
2018-10-03T16:09:08.202Z,101956.19
2018-10-03T16:11:37.189Z,101964.70
2018-10-03T16:14:05.764Z,101961.32
2018-10-03T16:16:34.584Z,101966.33
2018-10-03T16:19:03.988Z,101967.27
2018-10-03T16:21:35.422Z,101961.70
2018-10-03T16:24:04.308Z,101963.88
2018-10-03T16:26:32.979Z,101959.48
2018-10-03T16:29:01.805Z,101964.10
2018-10-03T16:31:30.929Z,101974.80
2018-10-03T16:34:00.477Z,101967.87
2018-10-03T16:36:29.283Z,101973.69
2018-10-03T16:38:58.014Z,101980.31
2018-10-03T16:41:26.634Z,101981.64
2018-10-03T16:43:55.262Z,101983.86
2018-10-03T16:46:23.940Z,101986.92
2018-10-03T16:48:52.815Z,101996.70
2018-10-03T16:51:21.506Z,101997.24
2018-10-03T16:53:50.749Z,101998.63
2018-10-03T16:56:19.665Z,101999.99
2018-10-03T16:58:48.388Z,102000.05
2018-10-03T17:01:17.020Z,101997.44
2018-10-03T17:03:45.532Z,102005.81
2018-10-03T17:06:14.314Z,102005.88
2018-10-03T17:08:46.017Z,102010.76
2018-10-03T17:11:14.895Z,102014.78
2018-10-03T17:13:54.528Z,102018.36
2018-10-03T17:16:23.492Z,102026.34
2018-10-03T17:18:52.270Z,102032.95
2018-10-03T17:21:21.186Z,102033.90
2018-10-03T17:23:50.124Z,102031.75
2018-10-03T17:26:18.858Z,102037.08
2018-10-03T17:28:48.248Z,102037.52
2018-10-03T17:31:16.774Z,102041.09
2018-10-03T17:33:45.781Z,102047.27
2018-10-03T17:36:14.418Z,102046.91
2018-10-03T17:38:43.611Z,102044.33
2018-10-03T17:41:12.536Z,102047.87
2018-10-03T17:43:41.214Z,102046.64
2018-10-03T17:46:09.925Z,102057.20
2018-10-03T17:48:38.846Z,102052.88
2018-10-03T17:51:07.789Z,102058.19
2018-10-03T17:53:37.014Z,102057.83
2018-10-03T17:56:05.613Z,102063.61
2018-10-03T17:58:34.223Z,102063.23
2018-10-03T18:01:02.716Z,102070.30
2018-10-03T18:03:31.765Z,102065.08
2018-10-03T18:06:03.402Z,102062.45
2018-10-03T18:08:32.069Z,102066.88
2018-10-03T18:11:00.971Z,102064.28
2018-10-03T18:13:29.969Z,102065.19
2018-10-03T18:15:58.636Z,102074.91
2018-10-03T18:18:27.662Z,102076.70
2018-10-03T18:20:56.253Z,102071.48
2018-10-03T18:23:25.165Z,102078.52
2018-10-03T18:25:53.990Z,102078.99
2018-10-03T18:28:22.735Z,102076.83
2018-10-03T18:30:51.963Z,102080.39
2018-10-03T18:33:20.842Z,102088.33
2018-10-03T18:35:49.837Z,102086.16
2018-10-03T18:38:18.986Z,102087.09
2018-10-03T18:40:48.259Z,102086.66
2018-10-03T18:43:17.711Z,102090.64
2018-10-03T18:45:47.596Z,102094.17
2018-10-03T18:48:17.439Z,102096.41
2018-10-03T18:50:46.958Z,102095.13
2018-10-03T18:53:16.455Z,102097.80
2018-10-03T18:55:45.760Z,102092.98
2018-10-03T18:58:15.123Z,102096.08
2018-10-03T19:00:45.064Z,102090.84
2018-10-03T19:03:14.687Z,102095.68
2018-10-03T19:05:44.031Z,102095.28
2018-10-03T19:08:14.867Z,102092.66
2018-10-03T19:10:44.202Z,102098.37
2018-10-03T19:13:13.868Z,102087.87
2018-10-03T19:15:43.222Z,102099.75
2018-10-03T19:18:13.113Z,102095.38
2018-10-03T19:20:42.455Z,102090.56
2018-10-03T19:23:11.463Z,102101.55
2018-10-03T19:25:40.912Z,102093.71
2018-10-03T19:28:12.013Z,102102.48
2018-10-03T19:30:41.692Z,102095.91
2018-10-03T19:33:11.786Z,102102.94
2018-10-03T19:35:42.045Z,102101.19
2018-10-03T19:38:11.238Z,102094.20
2018-10-03T19:40:41.119Z,102097.72
2018-10-03T19:43:10.221Z,102096.85
2018-10-03T19:45:39.342Z,102102.58
2018-10-03T19:48:08.591Z,102086.79
2018-10-03T19:50:37.152Z,102093.81
2018-10-03T19:53:05.778Z,102100.84
2018-10-03T19:55:34.921Z,102098.67
2018-10-03T19:58:03.935Z,102097.38
2018-10-03T20:00:32.782Z,102096.48
2018-10-03T20:03:07.290Z,102096.94
2018-10-03T20:05:35.887Z,102090.83
2018-10-03T20:08:04.542Z,102086.45
2018-10-03T20:10:33.503Z,102089.50
2018-10-03T20:13:02.511Z,102092.61
2018-10-03T20:15:31.146Z,102090.86
2018-10-03T20:18:01.385Z,102099.62
2018-10-03T20:20:30.047Z,102106.64
2018-10-03T20:22:58.895Z,102115.84
2018-10-03T20:25:27.650Z,102111.03
2018-10-03T20:27:56.234Z,102108.00
2018-10-03T20:30:24.852Z,102104.50
2018-10-03T20:32:54.037Z,102108.89
2018-10-03T20:35:23.439Z,102111.08
2018-10-03T20:37:52.468Z,102118.09
2018-10-03T20:40:21.174Z,102119.45
2018-10-03T20:42:49.909Z,102118.98
2018-10-03T20:45:18.598Z,102128.20
2018-10-03T20:47:47.321Z,102128.22
2018-10-03T20:50:17.721Z,102127.34
2018-10-03T20:52:46.449Z,102125.59
2018-10-03T20:55:14.978Z,102127.77
2018-10-03T20:57:43.840Z,102128.23
2018-10-03T21:00:12.383Z,102126.48
2018-10-03T21:02:41.609Z,102119.89
2018-10-03T21:05:10.127Z,102119.03
2018-10-03T21:07:39.058Z,102124.72
2018-10-03T21:10:08.266Z,102122.54
2018-10-03T21:12:37.329Z,102131.30
2018-10-03T21:15:07.345Z,102123.41
2018-10-03T21:17:36.029Z,102126.48
2018-10-03T21:20:05.647Z,102116.84
2018-10-03T21:22:34.281Z,102121.25
2018-10-03T21:25:02.997Z,102122.09
2018-10-03T21:27:31.526Z,102122.98
2018-10-03T21:30:00.137Z,102118.63
2018-10-03T21:32:28.976Z,102121.70
2018-10-03T21:34:57.410Z,102124.77
2018-10-03T21:37:26.115Z,102125.64
2018-10-03T21:39:54.688Z,102122.56
2018-10-03T21:42:23.348Z,102118.22
2018-10-03T21:44:51.893Z,102124.31
2018-10-03T21:47:20.784Z,102127.83
2018-10-03T21:49:49.473Z,102126.97
2018-10-03T21:52:18.247Z,102133.08
2018-10-03T21:54:46.835Z,102137.45
2018-10-03T21:57:15.454Z,102136.16
2018-10-03T21:59:44.273Z,102140.10
2018-10-03T22:02:13.392Z,102130.03
2018-10-03T22:04:41.863Z,102135.27
2018-10-03T22:07:10.313Z,102140.53
2018-10-03T22:09:38.954Z,102131.30
2018-10-03T22:12:07.616Z,102137.45
2018-10-03T22:14:37.085Z,102138.30
2018-10-03T22:17:09.738Z,102131.74
2018-10-03T22:19:38.651Z,102139.18
2018-10-03T22:22:07.222Z,102133.48
2018-10-03T22:24:35.821Z,102135.27
2018-10-03T22:27:04.377Z,102138.77
2018-10-03T22:29:33.310Z,102130.42
2018-10-03T22:32:01.886Z,102126.05
2018-10-03T22:34:31.299Z,102122.56
2018-10-03T22:36:59.972Z,102129.13
2018-10-03T22:39:28.562Z,102125.20
2018-10-03T22:41:57.071Z,102122.98
2018-10-03T22:44:25.945Z,102119.05
2018-10-03T22:46:54.958Z,102126.94
2018-10-03T22:49:23.523Z,102122.56
2018-10-03T22:51:52.392Z,102121.69
2018-10-03T22:54:21.529Z,102115.11
2018-10-03T22:56:50.738Z,102118.17
2018-10-03T22:59:19.293Z,102121.69
2018-10-03T23:01:47.792Z,102115.98
2018-10-03T23:04:16.233Z,102122.11
2018-10-03T23:06:45.950Z,102126.05
2018-10-03T23:09:14.452Z,102131.73
2018-10-03T23:11:43.121Z,102128.66
2018-10-03T23:14:11.559Z,102130.83
2018-10-03T23:16:40.172Z,102124.28
2018-10-03T23:19:08.732Z,102126.02
2018-10-03T23:21:37.556Z,102135.65
2018-10-03T23:24:06.104Z,102140.89
2018-10-03T23:26:34.620Z,102143.92
2018-10-03T23:29:03.475Z,102144.81
2018-10-03T23:31:32.199Z,102139.97
2018-10-03T23:34:01.037Z,102138.69
2018-10-03T23:36:29.817Z,102142.17
2018-10-03T23:38:58.460Z,102134.73
2018-10-03T23:41:28.442Z,102141.31
2018-10-03T23:43:57.092Z,102142.20
2018-10-03T23:46:25.950Z,102136.50
2018-10-03T23:48:54.458Z,102138.67
2018-10-03T23:51:23.113Z,102132.13
2018-10-03T23:53:51.659Z,102132.14
2018-10-03T23:56:20.401Z,102127.78
2018-10-03T23:58:48.925Z,102130.84
